Airfield :







YOU CAN JOIN US ON...

 
LOGIN :

Register | Disclaimer

   EN    FR    IT 

 









Legend :    VFR   Marginal VFR   IFR   Intensive IFR   Very Intensive IFR
Visi :
Ceiling :
>= 8 km
>= 3000ft
5 to 8 km
1000 to 3000 ft
1500m to 5 km
500 to 1000 ft
800 to 1500m
200 to 500 ft
< 800m
< 200 ft
Symbols :   Thunderstorms  Fog  Heavy snow  Heavy precipitations  Wind > 20 kt






- Airport Elevation : 76 ft
- IATA code : EGS


BIEG - Egilsstaðir

CURRENT METAR :
  • 081000Z 02007KT 9999 -SN FEW020 SCT030 BKN050 M01/M02 Q1016 R04/190095

EXPIRED METARs :
  • 080900Z 33004KT 9000 -SN SCT018 BKN030 M01/M01 Q1014 R04/190095
  • 080800Z 35009KT 6000 -SN OVC012 M01/M01 Q1013

TAF TAF BIEG
Valid from the 08 at 09:00 until the 09 at 09:00 UTC


080708Z 0809/0909 34014KT 9999 SCT020 BKN030 TX00/0809Z TNM06/0903Z
TEMPO 0809/0812 3000 SHSN BKN012
BECMG 0815/0817 CAVOK
BECMG 0900/0902 19012KT



MET'MAP, your aeronautical weather chart ! - Copyright ORBIFLY December 2007 - Disclaimer

ORBIFLY MET'MAP TEAM :

Programming & Development : Alexandra Zaïnal
Concept & original design : Baudouin d'Aumeries
Assistance for programming : Marc-Olivier Méhu
Technical & hardware support : Manuel Goepfert

Contact : metmap@orbifly.com




SOURCES & CREDITS :

   NOAA